createdAt,value
2023-03-17T00:01:39.000Z,7.35
2023-03-17T00:04:05.950Z,7.30
2023-03-17T00:06:33.751Z,7.30
2023-03-17T00:09:00.331Z,7.22
2023-03-17T00:11:27.998Z,7.13
2023-03-17T00:13:54.499Z,7.10
2023-03-17T00:16:27.010Z,7.08
2023-03-17T00:18:54.641Z,7.09
2023-03-17T00:21:30.555Z,7.05
2023-03-17T00:23:58.034Z,7.08
2023-03-17T00:26:25.646Z,7.08
2023-03-17T00:28:53.105Z,7.05
2023-03-17T00:31:23.544Z,7.02
2023-03-17T00:33:52.479Z,6.99
2023-03-17T00:36:22.498Z,6.94
2023-03-17T00:38:49.635Z,6.91
2023-03-17T00:41:16.142Z,6.87
2023-03-17T00:43:42.857Z,6.83
2023-03-17T00:46:14.867Z,6.79
2023-03-17T00:48:43.346Z,6.78
2023-03-17T00:51:09.836Z,6.74
2023-03-17T00:53:36.204Z,6.73
2023-03-17T00:56:02.775Z,6.69
2023-03-17T00:58:34.103Z,6.65
2023-03-17T01:01:01.215Z,6.60
2023-03-17T01:03:28.352Z,6.58
2023-03-17T01:05:56.933Z,6.54
2023-03-17T01:08:25.549Z,6.55
2023-03-17T01:10:52.457Z,6.57
2023-03-17T01:13:18.757Z,6.62
2023-03-17T01:15:47.731Z,6.64
2023-03-17T01:18:16.729Z,6.65
2023-03-17T01:20:43.726Z,6.65
2023-03-17T01:23:10.886Z,6.63
2023-03-17T01:25:38.826Z,6.63
2023-03-17T01:28:05.702Z,6.62
2023-03-17T01:30:39.942Z,6.61
2023-03-17T01:33:08.568Z,6.59
2023-03-17T01:35:36.734Z,6.59
2023-03-17T01:38:03.423Z,6.57
2023-03-17T01:40:42.421Z,6.55
2023-03-17T01:43:08.705Z,6.55
2023-03-17T01:46:12.715Z,6.51
2023-03-17T01:48:58.539Z,6.46
2023-03-17T01:51:29.428Z,6.43
2023-03-17T01:53:56.615Z,6.39
2023-03-17T01:56:23.442Z,6.34
2023-03-17T01:58:54.189Z,6.29
2023-03-17T02:01:29.040Z,6.23
2023-03-17T02:03:56.968Z,6.21
2023-03-17T02:06:24.191Z,6.21
2023-03-17T02:08:52.059Z,6.19
2023-03-17T02:11:20.966Z,6.20
2023-03-17T02:13:47.298Z,6.18
2023-03-17T02:16:17.316Z,6.20
2023-03-17T02:18:44.837Z,6.18
2023-03-17T02:21:38.198Z,6.15
2023-03-17T02:24:20.107Z,6.14
2023-03-17T02:26:48.610Z,6.13
2023-03-17T02:29:16.600Z,6.09
2023-03-17T02:31:45.274Z,6.08
2023-03-17T02:34:11.726Z,6.08
2023-03-17T02:36:38.277Z,6.09
2023-03-17T02:39:05.157Z,6.11
2023-03-17T02:41:31.609Z,6.14
2023-03-17T02:43:57.945Z,6.14
2023-03-17T02:46:24.286Z,6.18
2023-03-17T02:48:50.890Z,6.19
2023-03-17T02:51:17.245Z,6.18
2023-03-17T02:53:43.647Z,6.18
2023-03-17T02:56:10.213Z,6.16
2023-03-17T02:58:36.527Z,6.15
2023-03-17T03:01:03.528Z,6.16
2023-03-17T03:03:30.735Z,6.16
2023-03-17T03:05:58.164Z,6.16
2023-03-17T03:08:25.362Z,6.12
2023-03-17T03:10:52.345Z,6.16
2023-03-17T03:13:18.663Z,6.22
2023-03-17T03:15:45.064Z,6.27
2023-03-17T03:18:15.226Z,6.31
2023-03-17T03:20:44.008Z,6.33
2023-03-17T03:23:11.072Z,6.37
2023-03-17T03:25:40.743Z,6.40
2023-03-17T03:28:08.178Z,6.44
2023-03-17T03:30:36.540Z,6.45
2023-03-17T03:33:03.215Z,6.46
2023-03-17T03:35:29.680Z,6.48
2023-03-17T03:37:57.076Z,6.47
2023-03-17T03:40:25.006Z,6.48
2023-03-17T03:42:51.484Z,6.50
2023-03-17T03:45:17.976Z,6.51
2023-03-17T03:47:44.575Z,6.53
2023-03-17T03:50:11.846Z,6.55
2023-03-17T03:52:38.163Z,6.59
2023-03-17T03:55:05.166Z,6.63
2023-03-17T03:57:31.486Z,6.62
2023-03-17T03:59:57.830Z,6.61
2023-03-17T04:02:24.366Z,6.66
2023-03-17T04:04:51.052Z,6.67
2023-03-17T04:07:17.407Z,6.70
2023-03-17T04:09:43.761Z,6.77
2023-03-17T04:12:10.427Z,6.81
2023-03-17T04:14:36.789Z,6.82
2023-03-17T04:17:04.620Z,6.83
2023-03-17T04:19:31.431Z,6.84
2023-03-17T04:21:58.138Z,6.82
2023-03-17T04:24:25.107Z,6.85
2023-03-17T04:26:51.921Z,6.85
2023-03-17T04:29:19.067Z,6.89
2023-03-17T04:31:46.822Z,6.88
2023-03-17T04:34:16.346Z,6.88
2023-03-17T04:36:44.636Z,6.92
2023-03-17T04:39:11.094Z,6.93
2023-03-17T04:41:37.793Z,6.94
2023-03-17T04:44:04.806Z,6.96
2023-03-17T04:46:31.774Z,7.01
2023-03-17T04:48:58.083Z,7.02
2023-03-17T04:51:24.509Z,6.97
2023-03-17T04:53:51.377Z,6.98
2023-03-17T04:56:18.176Z,7.02
2023-03-17T04:58:44.573Z,7.03
2023-03-17T05:01:11.159Z,7.02
2023-03-17T05:03:37.487Z,7.04
2023-03-17T05:06:04.949Z,7.03
2023-03-17T05:08:31.384Z,7.03
2023-03-17T05:10:58.323Z,7.02
2023-03-17T05:13:26.243Z,7.01
2023-03-17T05:15:54.418Z,7.03
2023-03-17T05:18:22.554Z,7.00
2023-03-17T05:20:48.870Z,7.00
2023-03-17T05:23:15.370Z,7.01
2023-03-17T05:25:41.973Z,7.03
2023-03-17T05:28:08.840Z,7.02
2023-03-17T05:30:38.576Z,7.02
2023-03-17T05:33:05.105Z,7.00
2023-03-17T05:35:31.669Z,7.02
2023-03-17T05:37:58.012Z,7.06
2023-03-17T05:40:24.739Z,7.03
2023-03-17T05:42:51.499Z,6.99
2023-03-17T05:45:18.613Z,7.00
2023-03-17T05:47:45.693Z,6.95
2023-03-17T05:50:12.867Z,6.93
2023-03-17T05:52:39.289Z,6.95
2023-03-17T05:55:07.143Z,6.97
2023-03-17T05:57:33.826Z,6.99
2023-03-17T06:00:00.188Z,7.03
2023-03-17T06:02:27.083Z,7.07
2023-03-17T06:04:53.455Z,7.13
2023-03-17T06:07:20.496Z,7.19
2023-03-17T06:09:46.814Z,7.19
2023-03-17T06:12:13.239Z,7.21
2023-03-17T06:14:39.614Z,7.24
2023-03-17T06:17:06.219Z,7.26
2023-03-17T06:19:32.642Z,7.26
2023-03-17T06:21:59.833Z,7.27
2023-03-17T06:24:26.151Z,7.27
2023-03-17T06:26:52.936Z,7.32
2023-03-17T06:29:19.679Z,7.39
2023-03-17T06:31:50.447Z,7.42
2023-03-17T06:34:18.131Z,7.46
2023-03-17T06:36:45.394Z,7.79
2023-03-17T06:39:12.795Z,8.20
2023-03-17T06:41:39.456Z,8.46
2023-03-17T06:44:06.196Z,8.44
2023-03-17T06:46:32.777Z,8.46
2023-03-17T06:48:59.241Z,8.72
2023-03-17T06:51:25.603Z,9.19
2023-03-17T06:53:51.912Z,9.88
2023-03-17T06:56:29.541Z,10.01
2023-03-17T06:58:56.969Z,10.45
2023-03-17T07:01:23.438Z,10.49
2023-03-17T07:03:49.787Z,10.32
2023-03-17T07:06:16.141Z,10.40
2023-03-17T07:08:42.502Z,10.35
2023-03-17T07:11:09.280Z,10.16
2023-03-17T07:13:37.193Z,9.93
2023-03-17T07:16:03.992Z,9.73
2023-03-17T07:18:31.992Z,9.63
2023-03-17T07:20:58.761Z,9.56
2023-03-17T07:23:25.137Z,9.55
2023-03-17T07:25:51.533Z,9.58
2023-03-17T07:28:19.216Z,9.55
2023-03-17T07:30:46.935Z,9.53
2023-03-17T07:33:14.139Z,9.71
2023-03-17T07:35:41.580Z,9.86
2023-03-17T07:38:08.044Z,10.00
2023-03-17T07:40:35.475Z,10.08
2023-03-17T07:43:02.521Z,10.17
2023-03-17T07:45:29.275Z,10.29
2023-03-17T07:47:55.928Z,10.30
2023-03-17T07:50:22.403Z,10.25
2023-03-17T07:52:48.777Z,10.18
2023-03-17T07:55:15.836Z,10.16
2023-03-17T07:57:42.850Z,10.13
2023-03-17T08:00:10.295Z,10.08
2023-03-17T08:02:37.288Z,10.15
2023-03-17T08:05:04.542Z,10.23
2023-03-17T08:07:31.561Z,10.33
2023-03-17T08:09:58.162Z,10.50
2023-03-17T08:12:25.554Z,10.63
2023-03-17T08:14:52.507Z,10.82
2023-03-17T08:17:18.996Z,10.96
2023-03-17T08:19:45.428Z,11.07
2023-03-17T08:22:12.333Z,11.07
2023-03-17T08:24:41.042Z,11.08
2023-03-17T08:27:08.667Z,11.26
2023-03-17T08:29:35.879Z,11.31
2023-03-17T08:32:03.228Z,11.56
2023-03-17T08:34:29.870Z,12.20
2023-03-17T08:36:56.519Z,12.69
2023-03-17T08:39:22.901Z,12.95
2023-03-17T08:41:49.289Z,13.31
2023-03-17T08:44:16.448Z,13.43
2023-03-17T08:46:42.854Z,13.21
2023-03-17T08:49:10.730Z,13.01
2023-03-17T08:51:37.819Z,13.16
2023-03-17T08:54:05.702Z,13.14
2023-03-17T08:56:32.545Z,13.05
2023-03-17T08:58:59.394Z,13.44
2023-03-17T09:01:27.394Z,13.37
2023-03-17T09:03:55.905Z,13.16
2023-03-17T09:06:23.245Z,13.07
2023-03-17T09:08:55.041Z,13.08
2023-03-17T09:11:25.294Z,13.12
2023-03-17T09:13:52.072Z,13.40
2023-03-17T09:16:18.728Z,14.17
2023-03-17T09:18:46.942Z,15.11
2023-03-17T09:21:14.766Z,14.86
2023-03-17T09:23:42.058Z,14.39
2023-03-17T09:26:09.014Z,14.15
2023-03-17T09:28:35.536Z,13.86
2023-03-17T09:31:11.164Z,13.70
2023-03-17T09:33:41.515Z,13.59
2023-03-17T09:36:10.277Z,13.63
2023-03-17T09:38:37.424Z,13.50
2023-03-17T09:41:24.762Z,13.43
2023-03-17T09:44:17.263Z,13.44
2023-03-17T09:47:07.278Z,13.45
2023-03-17T09:49:49.243Z,13.70
2023-03-17T09:52:18.606Z,13.73
2023-03-17T09:54:46.544Z,13.90
2023-03-17T09:57:17.999Z,13.94
2023-03-17T09:59:47.910Z,14.00
2023-03-17T10:02:30.079Z,14.07
2023-03-17T10:04:57.645Z,13.97
2023-03-17T10:07:41.908Z,13.90
2023-03-17T10:10:15.758Z,13.99
2023-03-17T10:12:56.357Z,13.96
2023-03-17T10:15:47.515Z,13.85
2023-03-17T10:18:16.603Z,13.84
2023-03-17T10:20:51.725Z,13.79
2023-03-17T10:23:23.394Z,13.72
2023-03-17T10:25:49.811Z,13.72
2023-03-17T10:28:29.865Z,13.76
2023-03-17T10:31:18.829Z,13.90
2023-03-17T10:33:49.564Z,14.24
2023-03-17T10:36:17.742Z,14.50
2023-03-17T10:38:56.037Z,14.54
2023-03-17T10:41:22.500Z,14.58
2023-03-17T10:43:50.680Z,14.70
2023-03-17T10:46:25.732Z,14.77
2023-03-17T10:48:57.066Z,14.76
2023-03-17T10:51:32.267Z,14.64
2023-03-17T10:54:08.017Z,14.73
2023-03-17T10:56:37.311Z,14.89
2023-03-17T10:59:14.890Z,15.16
2023-03-17T11:01:49.419Z,15.43
2023-03-17T11:04:39.630Z,15.63
2023-03-17T11:07:18.896Z,15.63
2023-03-17T11:09:50.680Z,15.58
2023-03-17T11:12:48.525Z,15.65
2023-03-17T11:15:17.718Z,15.78
2023-03-17T11:18:01.460Z,15.74
2023-03-17T11:20:48.250Z,15.81
2023-03-17T11:23:38.589Z,15.73
2023-03-17T11:26:29.833Z,15.65
2023-03-17T11:29:22.503Z,15.53
2023-03-17T11:31:57.681Z,15.44
2023-03-17T11:34:35.683Z,15.49
2023-03-17T11:37:23.868Z,15.49
2023-03-17T11:39:58.005Z,15.64
2023-03-17T11:42:36.299Z,15.84
2023-03-17T11:45:34.748Z,15.96
2023-03-17T11:48:18.769Z,15.91
2023-03-17T11:50:56.358Z,15.85
2023-03-17T11:53:53.800Z,15.83
2023-03-17T11:56:25.055Z,15.77
2023-03-17T11:59:01.811Z,15.69
2023-03-17T12:01:48.251Z,15.69
2023-03-17T12:04:25.751Z,15.79
2023-03-17T12:06:58.538Z,15.97
2023-03-17T12:09:32.986Z,16.11
2023-03-17T12:12:02.483Z,16.17
2023-03-17T12:14:35.082Z,16.25
2023-03-17T12:17:14.257Z,16.37
2023-03-17T12:19:53.800Z,16.57
2023-03-17T12:22:32.759Z,16.62
2023-03-17T12:25:24.052Z,16.76
2023-03-17T12:28:00.645Z,16.71
2023-03-17T12:30:37.267Z,16.92
2023-03-17T12:33:22.740Z,16.87
2023-03-17T12:35:49.157Z,16.70
2023-03-17T12:38:27.475Z,16.59
2023-03-17T12:41:25.868Z,16.51
2023-03-17T12:44:23.633Z,16.51
2023-03-17T12:47:16.193Z,16.49
2023-03-17T12:50:20.092Z,16.43
2023-03-17T12:53:03.708Z,16.52
2023-03-17T12:55:36.087Z,16.51
2023-03-17T12:58:29.612Z,16.37
2023-03-17T13:01:18.297Z,16.21
2023-03-17T13:04:00.825Z,16.23
2023-03-17T13:06:30.780Z,16.22
2023-03-17T13:09:37.164Z,16.20
2023-03-17T13:12:06.547Z,16.26
2023-03-17T13:14:40.969Z,16.28
2023-03-17T13:17:17.341Z,16.26
2023-03-17T13:20:10.637Z,16.24
2023-03-17T13:22:40.801Z,16.24
2023-03-17T13:25:34.794Z,16.21
2023-03-17T13:28:13.439Z,16.22
2023-03-17T13:33:24.918Z,16.12
2023-03-17T13:36:09.314Z,16.11
2023-03-17T13:39:19.331Z,16.10
2023-03-17T13:41:55.304Z,16.09
2023-03-17T13:44:34.496Z,16.09
2023-03-17T13:47:28.281Z,16.08
2023-03-17T13:50:01.349Z,16.07
2023-03-17T13:52:32.921Z,16.11
2023-03-17T13:55:05.896Z,16.02
2023-03-17T13:57:37.196Z,15.96
2023-03-17T14:00:20.945Z,15.96
2023-03-17T14:02:48.754Z,15.98
2023-03-17T14:05:24.220Z,16.09
2023-03-17T14:08:02.710Z,16.18
2023-03-17T14:10:31.884Z,16.18
2023-03-17T14:13:18.287Z,16.10
2023-03-17T14:15:51.296Z,16.05
2023-03-17T14:18:21.191Z,16.04
2023-03-17T14:20:55.728Z,16.10
2023-03-17T14:23:23.803Z,16.12
2023-03-17T14:25:51.022Z,16.19
2023-03-17T14:28:23.237Z,16.25
2023-03-17T14:30:56.378Z,16.30
2023-03-17T14:33:26.647Z,16.27
2023-03-17T14:35:56.263Z,16.24
2023-03-17T14:38:28.449Z,16.24
2023-03-17T14:41:04.424Z,16.31
2023-03-17T14:43:32.451Z,16.35
2023-03-17T14:46:01.473Z,16.33
2023-03-17T14:48:49.471Z,16.31
2023-03-17T14:51:39.106Z,16.37
2023-03-17T14:54:14.413Z,16.47
2023-03-17T14:56:47.657Z,16.45
2023-03-17T14:59:23.488Z,16.45
2023-03-17T15:01:54.709Z,16.42
2023-03-17T15:04:27.416Z,16.40
2023-03-17T15:07:10.787Z,16.38
2023-03-17T15:09:39.584Z,16.36
2023-03-17T15:12:24.368Z,16.33
2023-03-17T15:14:53.768Z,16.33
2023-03-17T15:17:22.032Z,16.31
2023-03-17T15:19:53.770Z,16.35
2023-03-17T15:22:44.287Z,16.34
2023-03-17T15:25:23.854Z,16.35
2023-03-17T15:27:50.821Z,16.39
2023-03-17T15:30:17.558Z,16.44
2023-03-17T15:32:44.202Z,16.49
2023-03-17T15:35:14.138Z,16.50
2023-03-17T15:37:42.845Z,16.47
2023-03-17T15:40:10.056Z,16.46
2023-03-17T15:42:39.485Z,16.42
2023-03-17T15:45:06.582Z,16.35
2023-03-17T15:47:36.598Z,16.30
2023-03-17T15:50:13.036Z,16.24
2023-03-17T15:52:39.378Z,16.23
2023-03-17T15:55:06.912Z,16.20
2023-03-17T15:57:33.294Z,16.18
2023-03-17T15:59:59.881Z,16.13
2023-03-17T16:02:28.039Z,16.09
2023-03-17T16:04:55.431Z,16.09
2023-03-17T16:07:22.313Z,16.08
2023-03-17T16:09:48.646Z,16.03
2023-03-17T16:12:16.028Z,15.99
2023-03-17T16:14:42.774Z,15.93
2023-03-17T16:17:18.990Z,15.89
2023-03-17T16:19:46.817Z,15.85
2023-03-17T16:22:43.480Z,15.81
2023-03-17T16:25:30.766Z,15.77
2023-03-17T16:27:58.873Z,15.73
2023-03-17T16:30:28.038Z,15.68
2023-03-17T16:32:57.577Z,15.65
2023-03-17T16:35:25.507Z,15.62
2023-03-17T16:37:54.119Z,15.58
2023-03-17T16:40:26.474Z,15.54
2023-03-17T16:42:53.563Z,15.48
2023-03-17T16:45:27.020Z,15.40
2023-03-17T16:47:54.235Z,15.34
2023-03-17T16:50:23.904Z,15.25
2023-03-17T16:52:54.357Z,15.20
2023-03-17T16:55:25.291Z,15.15
2023-03-17T16:57:54.829Z,15.08
2023-03-17T17:00:27.049Z,15.02
2023-03-17T17:02:54.039Z,14.93
2023-03-17T17:05:23.460Z,14.86
2023-03-17T17:07:51.550Z,14.77
2023-03-17T17:10:20.162Z,14.69
2023-03-17T17:12:48.182Z,14.61
2023-03-17T17:15:16.593Z,14.54
2023-03-17T17:17:46.640Z,14.49
2023-03-17T17:20:21.235Z,14.41
2023-03-17T17:22:48.616Z,14.33
2023-03-17T17:25:16.139Z,14.26
2023-03-17T17:27:44.209Z,14.22
2023-03-17T17:30:13.950Z,14.17
2023-03-17T17:32:40.596Z,14.11
2023-03-17T17:35:08.106Z,14.03
2023-03-17T17:37:35.034Z,13.98
2023-03-17T17:40:01.529Z,13.94
2023-03-17T17:42:27.861Z,13.90
2023-03-17T17:44:54.171Z,13.87
2023-03-17T17:47:20.911Z,13.80
2023-03-17T17:49:47.337Z,13.74
2023-03-17T17:52:13.686Z,13.71
2023-03-17T17:54:40.169Z,13.65
2023-03-17T17:57:07.057Z,13.59
2023-03-17T17:59:33.353Z,13.54
2023-03-17T18:02:01.014Z,13.47
2023-03-17T18:04:27.394Z,13.45
2023-03-17T18:06:53.765Z,13.44
2023-03-17T18:09:20.103Z,13.42
2023-03-17T18:11:46.429Z,13.40
2023-03-17T18:14:13.599Z,13.33
2023-03-17T18:16:41.018Z,13.29
2023-03-17T18:19:09.313Z,13.23
2023-03-17T18:21:36.378Z,13.19
2023-03-17T18:24:04.274Z,13.12
2023-03-17T18:26:31.494Z,13.07
2023-03-17T18:28:57.844Z,13.04
2023-03-17T18:31:24.163Z,13.00
2023-03-17T18:33:55.284Z,12.97
2023-03-17T18:36:22.228Z,12.91
2023-03-17T18:38:48.644Z,12.83
2023-03-17T18:41:15.314Z,12.76
2023-03-17T18:43:44.350Z,12.70
2023-03-17T18:46:12.730Z,12.64
2023-03-17T18:48:40.105Z,12.62
2023-03-17T18:51:06.839Z,12.59
2023-03-17T18:53:36.615Z,12.56
2023-03-17T18:56:02.990Z,12.52
2023-03-17T18:58:29.673Z,12.51
2023-03-17T19:01:01.333Z,12.52
2023-03-17T19:03:29.083Z,12.49
2023-03-17T19:05:55.773Z,12.45
2023-03-17T19:08:22.285Z,12.43
2023-03-17T19:10:48.959Z,12.40
2023-03-17T19:13:15.847Z,12.34
2023-03-17T19:15:42.291Z,12.36
2023-03-17T19:18:08.776Z,12.36
2023-03-17T19:20:36.235Z,12.33
2023-03-17T19:23:06.877Z,12.37
2023-03-17T19:25:33.299Z,12.36
2023-03-17T19:27:59.610Z,12.39
2023-03-17T19:30:26.110Z,12.42
2023-03-17T19:32:52.597Z,12.48
2023-03-17T19:35:18.937Z,12.51
2023-03-17T19:37:45.264Z,12.53
2023-03-17T19:40:13.247Z,12.61
2023-03-17T19:42:39.575Z,12.69
2023-03-17T19:45:06.828Z,12.70
2023-03-17T19:47:33.493Z,12.74
2023-03-17T19:49:59.894Z,12.71
2023-03-17T19:52:26.338Z,12.73
2023-03-17T19:54:52.879Z,12.75
2023-03-17T19:57:20.684Z,12.78
2023-03-17T19:59:47.227Z,12.77
2023-03-17T20:02:16.009Z,12.73
2023-03-17T20:04:42.815Z,12.73
2023-03-17T20:07:10.217Z,12.73
2023-03-17T20:09:37.866Z,12.70
2023-03-17T20:12:05.117Z,12.69
2023-03-17T20:14:31.845Z,12.70
2023-03-17T20:16:58.194Z,12.75
2023-03-17T20:19:24.578Z,12.79
2023-03-17T20:21:51.011Z,12.82
2023-03-17T20:24:17.517Z,12.83
2023-03-17T20:26:44.489Z,12.84
2023-03-17T20:29:12.582Z,12.85
2023-03-17T20:31:39.915Z,12.84
2023-03-17T20:34:07.692Z,12.84
2023-03-17T20:36:34.505Z,12.86
2023-03-17T20:39:00.847Z,12.85
2023-03-17T20:41:27.490Z,12.84
2023-03-17T20:43:53.795Z,12.81
2023-03-17T20:46:22.476Z,12.83
2023-03-17T20:48:50.830Z,12.83
2023-03-17T20:51:18.597Z,12.82
2023-03-17T20:53:47.429Z,12.81
2023-03-17T20:56:19.714Z,12.80
2023-03-17T20:58:48.308Z,12.79
2023-03-17T21:01:21.199Z,12.78
2023-03-17T21:03:48.221Z,12.78
2023-03-17T21:06:14.770Z,12.76
2023-03-17T21:08:41.134Z,12.79
2023-03-17T21:11:09.087Z,12.80
2023-03-17T21:13:35.506Z,12.81
2023-03-17T21:16:02.771Z,12.81
2023-03-17T21:18:29.970Z,12.82
2023-03-17T21:20:56.831Z,12.82
2023-03-17T21:23:26.715Z,12.81
2023-03-17T21:25:56.450Z,12.78
2023-03-17T21:28:23.451Z,12.78
2023-03-17T21:30:49.996Z,12.77
2023-03-17T21:33:16.589Z,12.74
2023-03-17T21:35:43.233Z,12.72
2023-03-17T21:38:09.801Z,12.71
2023-03-17T21:40:36.251Z,12.72
2023-03-17T21:43:02.807Z,12.74
2023-03-17T21:45:29.226Z,12.70
2023-03-17T21:47:55.670Z,12.69
2023-03-17T21:50:22.496Z,12.64
2023-03-17T21:52:49.010Z,12.60
2023-03-17T21:55:15.743Z,12.60
2023-03-17T21:57:42.207Z,12.62
2023-03-17T22:00:09.628Z,12.60
2023-03-17T22:02:36.890Z,12.59
2023-03-17T22:05:04.343Z,12.56
2023-03-17T22:07:31.483Z,12.56
2023-03-17T22:09:58.169Z,12.54
2023-03-17T22:12:24.735Z,12.53
2023-03-17T22:14:51.242Z,12.51
2023-03-17T22:17:17.567Z,12.47
2023-03-17T22:19:44.048Z,12.46
2023-03-17T22:22:11.185Z,12.46
2023-03-17T22:24:40.817Z,12.44
2023-03-17T22:27:07.235Z,12.42
2023-03-17T22:29:33.612Z,12.37
2023-03-17T22:32:01.213Z,12.33
2023-03-17T22:34:28.038Z,12.28
2023-03-17T22:36:54.383Z,12.25
2023-03-17T22:39:20.754Z,12.22
2023-03-17T22:41:47.111Z,12.19
2023-03-17T22:44:13.985Z,12.17
2023-03-17T22:46:43.267Z,12.14
2023-03-17T22:49:10.076Z,12.14
2023-03-17T22:51:36.888Z,12.09
2023-03-17T22:54:03.858Z,12.08
2023-03-17T22:56:30.354Z,12.07
2023-03-17T22:58:56.719Z,12.05
2023-03-17T23:01:26.039Z,12.06
2023-03-17T23:03:53.617Z,12.04
2023-03-17T23:06:20.994Z,12.03
2023-03-17T23:08:47.699Z,12.00
2023-03-17T23:11:18.378Z,11.99
2023-03-17T23:13:45.996Z,11.95
2023-03-17T23:16:13.392Z,11.91
2023-03-17T23:18:40.898Z,11.86
2023-03-17T23:21:08.737Z,11.81
2023-03-17T23:23:36.438Z,11.75
2023-03-17T23:26:03.149Z,11.66
2023-03-17T23:28:29.498Z,11.58
2023-03-17T23:30:55.881Z,11.48
2023-03-17T23:33:23.966Z,11.43
2023-03-17T23:35:51.310Z,11.39
2023-03-17T23:38:21.648Z,11.35
2023-03-17T23:40:49.262Z,11.33
2023-03-17T23:43:16.073Z,11.34
2023-03-17T23:45:42.717Z,11.32
2023-03-17T23:48:10.011Z,11.30
2023-03-17T23:50:37.053Z,11.24
2023-03-17T23:53:03.791Z,11.24
2023-03-17T23:55:30.646Z,11.22
2023-03-17T23:57:56.992Z,11.09
